sensor_id;sensor_type;location;lat;lon;timestamp;temperature;humidity
9776;DHT22;4927;52.472;13.108;2023-06-05T00:00:36;9.60;99.90
9776;DHT22;4927;52.472;13.108;2023-06-05T00:01:38;9.50;99.90
9776;DHT22;4927;52.472;13.108;2023-06-05T00:02:40;9.50;99.90
9776;DHT22;4927;52.472;13.108;2023-06-05T00:03:42;9.40;99.90
9776;DHT22;4927;52.472;13.108;2023-06-05T00:04:44;9.40;99.90
9776;DHT22;4927;52.472;13.108;2023-06-05T00:05:47;9.40;99.90
9776;DHT22;4927;52.472;13.108;2023-06-05T00:06:49;9.30;99.90
9776;DHT22;4927;52.472;13.108;2023-06-05T00:07:51;9.30;99.90
9776;DHT22;4927;52.472;13.108;2023-06-05T00:08:52;9.30;99.90
9776;DHT22;4927;52.472;13.108;2023-06-05T00:09:54;9.20;99.90
9776;DHT22;4927;52.472;13.108;2023-06-05T00:10:56;9.20;99.90
9776;DHT22;4927;52.472;13.108;2023-06-05T00:11:59;9.20;99.90
9776;DHT22;4927;52.472;13.108;2023-06-05T00:13:01;9.20;99.90
9776;DHT22;4927;52.472;13.108;2023-06-05T00:14:02;9.20;99.90
9776;DHT22;4927;52.472;13.108;2023-06-05T00:15:06;9.20;99.90
9776;DHT22;4927;52.472;13.108;2023-06-05T00:16:08;9.20;99.90
9776;DHT22;4927;52.472;13.108;2023-06-05T00:17:10;9.20;99.90
9776;DHT22;4927;52.472;13.108;2023-06-05T00:18:12;9.20;99.90
9776;DHT22;4927;52.472;13.108;2023-06-05T00:19:14;9.20;99.90
9776;DHT22;4927;52.472;13.108;2023-06-05T00:20:16;9.20;99.90
9776;DHT22;4927;52.472;13.108;2023-06-05T00:21:18;9.20;99.90
9776;DHT22;4927;52.472;13.108;2023-06-05T00:22:20;9.20;99.90
9776;DHT22;4927;52.472;13.108;2023-06-05T00:23:22;9.20;99.90
9776;DHT22;4927;52.472;13.108;2023-06-05T00:24:24;9.20;99.90
9776;DHT22;4927;52.472;13.108;2023-06-05T00:25:26;9.20;99.90
9776;DHT22;4927;52.472;13.108;2023-06-05T00:26:27;9.10;99.90
9776;DHT22;4927;52.472;13.108;2023-06-05T00:27:29;9.10;99.90
9776;DHT22;4927;52.472;13.108;2023-06-05T00:28:31;9.10;99.90
9776;DHT22;4927;52.472;13.108;2023-06-05T00:29:33;9.10;99.90
9776;DHT22;4927;52.472;13.108;2023-06-05T00:30:35;9.10;99.90
9776;DHT22;4927;52.472;13.108;2023-06-05T00:31:38;9.10;99.90
9776;DHT22;4927;52.472;13.108;2023-06-05T00:32:40;9.10;99.90
9776;DHT22;4927;52.472;13.108;2023-06-05T00:33:41;9.10;99.90
9776;DHT22;4927;52.472;13.108;2023-06-05T00:34:43;9.10;99.90
9776;DHT22;4927;52.472;13.108;2023-06-05T00:35:45;9.20;99.90
9776;DHT22;4927;52.472;13.108;2023-06-05T00:36:47;9.20;99.90
9776;DHT22;4927;52.472;13.108;2023-06-05T00:37:49;9.20;99.90
9776;DHT22;4927;52.472;13.108;2023-06-05T00:38:52;9.10;99.90
9776;DHT22;4927;52.472;13.108;2023-06-05T00:39:54;9.10;99.90
9776;DHT22;4927;52.472;13.108;2023-06-05T00:40:55;9.00;99.90
9776;DHT22;4927;52.472;13.108;2023-06-05T00:41:57;9.00;99.90
9776;DHT22;4927;52.472;13.108;2023-06-05T00:42:59;9.00;99.90
9776;DHT22;4927;52.472;13.108;2023-06-05T00:44:01;9.00;99.90
9776;DHT22;4927;52.472;13.108;2023-06-05T00:45:03;9.00;99.90
9776;DHT22;4927;52.472;13.108;2023-06-05T00:46:06;9.00;99.90
9776;DHT22;4927;52.472;13.108;2023-06-05T00:47:08;8.90;99.90
9776;DHT22;4927;52.472;13.108;2023-06-05T00:48:10;8.90;99.90
9776;DHT22;4927;52.472;13.108;2023-06-05T00:49:12;8.90;99.90
9776;DHT22;4927;52.472;13.108;2023-06-05T00:50:14;8.90;99.90
9776;DHT22;4927;52.472;13.108;2023-06-05T00:51:16;8.90;99.90
9776;DHT22;4927;52.472;13.108;2023-06-05T00:52:18;8.90;99.90
9776;DHT22;4927;52.472;13.108;2023-06-05T00:53:20;8.90;99.90
9776;DHT22;4927;52.472;13.108;2023-06-05T00:54:22;8.90;99.90
9776;DHT22;4927;52.472;13.108;2023-06-05T00:55:25;8.90;99.90
9776;DHT22;4927;52.472;13.108;2023-06-05T00:56:26;8.80;99.90
9776;DHT22;4927;52.472;13.108;2023-06-05T00:57:27;8.80;99.90
9776;DHT22;4927;52.472;13.108;2023-06-05T00:58:29;8.70;99.90
9776;DHT22;4927;52.472;13.108;2023-06-05T00:59:31;8.70;99.90
9776;DHT22;4927;52.472;13.108;2023-06-05T01:00:33;8.70;99.90
9776;DHT22;4927;52.472;13.108;2023-06-05T01:01:35;8.70;99.90
9776;DHT22;4927;52.472;13.108;2023-06-05T01:02:38;8.70;99.90
9776;DHT22;4927;52.472;13.108;2023-06-05T01:03:39;8.70;99.90
9776;DHT22;4927;52.472;13.108;2023-06-05T01:04:41;8.70;99.90
9776;DHT22;4927;52.472;13.108;2023-06-05T01:05:43;8.60;99.90
9776;DHT22;4927;52.472;13.108;2023-06-05T01:06:44;8.60;99.90
9776;DHT22;4927;52.472;13.108;2023-06-05T01:07:46;8.60;99.90
9776;DHT22;4927;52.472;13.108;2023-06-05T01:08:49;8.60;99.90
9776;DHT22;4927;52.472;13.108;2023-06-05T01:09:50;8.60;99.90
9776;DHT22;4927;52.472;13.108;2023-06-05T01:10:52;8.60;99.90
9776;DHT22;4927;52.472;13.108;2023-06-05T01:11:58;8.60;99.90
9776;DHT22;4927;52.472;13.108;2023-06-05T01:13:06;8.60;99.90
9776;DHT22;4927;52.472;13.108;2023-06-05T01:14:15;8.60;99.90
9776;DHT22;4927;52.472;13.108;2023-06-05T01:15:16;8.50;99.90
9776;DHT22;4927;52.472;13.108;2023-06-05T01:16:18;8.50;99.90
9776;DHT22;4927;52.472;13.108;2023-06-05T01:17:20;8.50;99.90
9776;DHT22;4927;52.472;13.108;2023-06-05T01:18:21;8.50;99.90
9776;DHT22;4927;52.472;13.108;2023-06-05T01:19:23;8.50;99.90
9776;DHT22;4927;52.472;13.108;2023-06-05T01:20:32;8.50;99.90
9776;DHT22;4927;52.472;13.108;2023-06-05T01:21:35;8.50;99.90
9776;DHT22;4927;52.472;13.108;2023-06-05T01:22:37;8.50;99.90
9776;DHT22;4927;52.472;13.108;2023-06-05T01:23:40;8.50;99.90
9776;DHT22;4927;52.472;13.108;2023-06-05T01:24:43;8.50;99.90
9776;DHT22;4927;52.472;13.108;2023-06-05T01:25:44;8.50;99.90
9776;DHT22;4927;52.472;13.108;2023-06-05T01:26:53;8.50;99.90
9776;DHT22;4927;52.472;13.108;2023-06-05T01:28:20;8.40;99.90
9776;DHT22;4927;52.472;13.108;2023-06-05T01:29:23;8.40;99.90
9776;DHT22;4927;52.472;13.108;2023-06-05T01:30:36;8.40;99.90
9776;DHT22;4927;52.472;13.108;2023-06-05T01:31:46;8.30;99.90
9776;DHT22;4927;52.472;13.108;2023-06-05T01:32:54;8.30;99.90
9776;DHT22;4927;52.472;13.108;2023-06-05T01:33:58;8.30;99.90
9776;DHT22;4927;52.472;13.108;2023-06-05T01:34:59;8.30;99.90
9776;DHT22;4927;52.472;13.108;2023-06-05T01:36:02;8.30;99.90
9776;DHT22;4927;52.472;13.108;2023-06-05T01:37:04;8.30;99.90
9776;DHT22;4927;52.472;13.108;2023-06-05T01:38:05;8.30;99.90
9776;DHT22;4927;52.472;13.108;2023-06-05T01:39:07;8.30;99.90
9776;DHT22;4927;52.472;13.108;2023-06-05T01:40:10;8.30;99.90
9776;DHT22;4927;52.472;13.108;2023-06-05T01:41:12;8.20;99.90
9776;DHT22;4927;52.472;13.108;2023-06-05T01:42:13;8.20;99.90
9776;DHT22;4927;52.472;13.108;2023-06-05T01:43:15;8.20;99.90
9776;DHT22;4927;52.472;13.108;2023-06-05T01:44:17;8.20;99.90
9776;DHT22;4927;52.472;13.108;2023-06-05T01:45:19;8.20;99.90
9776;DHT22;4927;52.472;13.108;2023-06-05T01:46:21;8.20;99.90
9776;DHT22;4927;52.472;13.108;2023-06-05T01:47:22;8.10;99.90
9776;DHT22;4927;52.472;13.108;2023-06-05T01:48:24;8.20;99.90
9776;DHT22;4927;52.472;13.108;2023-06-05T01:49:26;8.20;99.90
9776;DHT22;4927;52.472;13.108;2023-06-05T01:50:28;8.10;99.90
9776;DHT22;4927;52.472;13.108;2023-06-05T01:51:30;8.10;99.90
9776;DHT22;4927;52.472;13.108;2023-06-05T01:52:32;8.10;99.90
9776;DHT22;4927;52.472;13.108;2023-06-05T01:53:33;8.10;99.90
9776;DHT22;4927;52.472;13.108;2023-06-05T01:54:35;8.10;99.90
9776;DHT22;4927;52.472;13.108;2023-06-05T01:55:37;8.00;99.90
9776;DHT22;4927;52.472;13.108;2023-06-05T01:56:39;8.00;99.90
9776;DHT22;4927;52.472;13.108;2023-06-05T01:57:41;8.00;99.90
9776;DHT22;4927;52.472;13.108;2023-06-05T01:58:42;8.00;99.90
9776;DHT22;4927;52.472;13.108;2023-06-05T01:59:44;8.00;99.90
9776;DHT22;4927;52.472;13.108;2023-06-05T02:00:47;8.00;99.90
9776;DHT22;4927;52.472;13.108;2023-06-05T02:01:49;8.00;99.90
9776;DHT22;4927;52.472;13.108;2023-06-05T02:02:50;8.00;99.90
9776;DHT22;4927;52.472;13.108;2023-06-05T02:03:52;7.90;99.90
9776;DHT22;4927;52.472;13.108;2023-06-05T02:04:54;8.00;99.90
9776;DHT22;4927;52.472;13.108;2023-06-05T02:05:56;8.00;99.90
9776;DHT22;4927;52.472;13.108;2023-06-05T02:06:57;8.00;99.90
9776;DHT22;4927;52.472;13.108;2023-06-05T02:07:59;7.90;99.90
9776;DHT22;4927;52.472;13.108;2023-06-05T02:09:01;8.00;99.90
9776;DHT22;4927;52.472;13.108;2023-06-05T02:10:04;7.90;99.90
9776;DHT22;4927;52.472;13.108;2023-06-05T02:11:06;7.90;99.90
9776;DHT22;4927;52.472;13.108;2023-06-05T02:12:07;7.90;99.90
9776;DHT22;4927;52.472;13.108;2023-06-05T02:13:09;7.80;99.90
9776;DHT22;4927;52.472;13.108;2023-06-05T02:14:11;7.90;99.90
9776;DHT22;4927;52.472;13.108;2023-06-05T02:15:13;7.80;99.90
9776;DHT22;4927;52.472;13.108;2023-06-05T02:16:14;7.80;99.90
9776;DHT22;4927;52.472;13.108;2023-06-05T02:17:16;7.80;99.90
9776;DHT22;4927;52.472;13.108;2023-06-05T02:18:18;7.80;99.90
9776;DHT22;4927;52.472;13.108;2023-06-05T02:19:20;7.80;99.90
9776;DHT22;4927;52.472;13.108;2023-06-05T02:20:23;7.80;99.90
9776;DHT22;4927;52.472;13.108;2023-06-05T02:21:23;7.70;99.90
9776;DHT22;4927;52.472;13.108;2023-06-05T02:22:25;7.70;99.90
9776;DHT22;4927;52.472;13.108;2023-06-05T02:23:27;7.70;99.90
9776;DHT22;4927;52.472;13.108;2023-06-05T02:24:29;7.70;99.90
9776;DHT22;4927;52.472;13.108;2023-06-05T02:25:30;7.70;99.90
9776;DHT22;4927;52.472;13.108;2023-06-05T02:26:32;7.70;99.90
9776;DHT22;4927;52.472;13.108;2023-06-05T02:27:34;7.70;99.90
9776;DHT22;4927;52.472;13.108;2023-06-05T02:28:36;7.70;99.90
9776;DHT22;4927;52.472;13.108;2023-06-05T02:29:37;7.60;99.90
9776;DHT22;4927;52.472;13.108;2023-06-05T02:30:41;7.60;99.90
9776;DHT22;4927;52.472;13.108;2023-06-05T02:31:42;7.60;99.90
9776;DHT22;4927;52.472;13.108;2023-06-05T02:32:44;7.60;99.90
9776;DHT22;4927;52.472;13.108;2023-06-05T02:33:46;7.60;99.90
9776;DHT22;4927;52.472;13.108;2023-06-05T02:34:48;7.70;99.90
9776;DHT22;4927;52.472;13.108;2023-06-05T02:35:49;7.60;99.90
9776;DHT22;4927;52.472;13.108;2023-06-05T02:36:51;7.60;99.90
9776;DHT22;4927;52.472;13.108;2023-06-05T02:37:53;7.60;99.90
9776;DHT22;4927;52.472;13.108;2023-06-05T02:38:55;7.50;99.90
9776;DHT22;4927;52.472;13.108;2023-06-05T02:39:57;7.50;99.90
9776;DHT22;4927;52.472;13.108;2023-06-05T02:40:58;7.50;99.90
9776;DHT22;4927;52.472;13.108;2023-06-05T02:42:01;7.50;99.90
9776;DHT22;4927;52.472;13.108;2023-06-05T02:43:03;7.50;99.90
9776;DHT22;4927;52.472;13.108;2023-06-05T02:44:05;7.50;99.90
9776;DHT22;4927;52.472;13.108;2023-06-05T02:45:08;7.50;99.90
9776;DHT22;4927;52.472;13.108;2023-06-05T02:46:10;7.50;99.90
9776;DHT22;4927;52.472;13.108;2023-06-05T02:47:12;7.40;99.90
9776;DHT22;4927;52.472;13.108;2023-06-05T02:48:14;7.50;99.90
9776;DHT22;4927;52.472;13.108;2023-06-05T02:49:15;7.50;99.90
9776;DHT22;4927;52.472;13.108;2023-06-05T02:50:17;7.50;99.90
9776;DHT22;4927;52.472;13.108;2023-06-05T02:51:19;7.50;99.90
9776;DHT22;4927;52.472;13.108;2023-06-05T02:52:21;7.40;99.90
9776;DHT22;4927;52.472;13.108;2023-06-05T02:53:22;7.40;99.90
9776;DHT22;4927;52.472;13.108;2023-06-05T02:54:25;7.40;99.90
9776;DHT22;4927;52.472;13.108;2023-06-05T02:55:26;7.40;99.90
9776;DHT22;4927;52.472;13.108;2023-06-05T02:56:28;7.40;99.90
9776;DHT22;4927;52.472;13.108;2023-06-05T02:57:29;7.40;99.90
9776;DHT22;4927;52.472;13.108;2023-06-05T02:58:31;7.40;99.90
9776;DHT22;4927;52.472;13.108;2023-06-05T02:59:33;7.40;99.90
9776;DHT22;4927;52.472;13.108;2023-06-05T03:00:35;7.40;99.90
9776;DHT22;4927;52.472;13.108;2023-06-05T03:01:37;7.40;99.90
9776;DHT22;4927;52.472;13.108;2023-06-05T03:02:38;7.40;99.90
9776;DHT22;4927;52.472;13.108;2023-06-05T03:03:40;7.40;99.90
9776;DHT22;4927;52.472;13.108;2023-06-05T03:04:42;7.40;99.90
9776;DHT22;4927;52.472;13.108;2023-06-05T03:05:44;7.40;99.90
9776;DHT22;4927;52.472;13.108;2023-06-05T03:06:47;7.40;99.90
9776;DHT22;4927;52.472;13.108;2023-06-05T03:07:49;7.40;99.90
9776;DHT22;4927;52.472;13.108;2023-06-05T03:08:51;7.40;99.90
9776;DHT22;4927;52.472;13.108;2023-06-05T03:09:53;7.40;99.90
9776;DHT22;4927;52.472;13.108;2023-06-05T03:10:55;7.40;99.90
9776;DHT22;4927;52.472;13.108;2023-06-05T03:11:57;7.30;99.90
9776;DHT22;4927;52.472;13.108;2023-06-05T03:12:58;7.40;99.90
9776;DHT22;4927;52.472;13.108;2023-06-05T03:14:01;7.30;99.90
9776;DHT22;4927;52.472;13.108;2023-06-05T03:15:04;7.30;99.90
9776;DHT22;4927;52.472;13.108;2023-06-05T03:16:06;7.30;99.90
9776;DHT22;4927;52.472;13.108;2023-06-05T03:17:08;7.30;99.90
9776;DHT22;4927;52.472;13.108;2023-06-05T03:18:10;7.30;99.90
9776;DHT22;4927;52.472;13.108;2023-06-05T03:19:11;7.30;99.90
9776;DHT22;4927;52.472;13.108;2023-06-05T03:20:13;7.30;99.90
9776;DHT22;4927;52.472;13.108;2023-06-05T03:21:15;7.20;99.90
9776;DHT22;4927;52.472;13.108;2023-06-05T03:22:18;7.30;99.90
9776;DHT22;4927;52.472;13.108;2023-06-05T03:23:20;7.30;99.90
9776;DHT22;4927;52.472;13.108;2023-06-05T03:24:23;7.30;99.90
9776;DHT22;4927;52.472;13.108;2023-06-05T03:25:25;7.30;99.90
9776;DHT22;4927;52.472;13.108;2023-06-05T03:26:27;7.30;99.90
9776;DHT22;4927;52.472;13.108;2023-06-05T03:28:39;7.30;99.90
9776;DHT22;4927;52.472;13.108;2023-06-05T03:29:41;7.30;99.90
9776;DHT22;4927;52.472;13.108;2023-06-05T03:30:43;7.30;99.90
9776;DHT22;4927;52.472;13.108;2023-06-05T03:31:45;7.30;99.90
9776;DHT22;4927;52.472;13.108;2023-06-05T03:32:47;7.30;99.90
9776;DHT22;4927;52.472;13.108;2023-06-05T03:33:48;7.30;99.90
9776;DHT22;4927;52.472;13.108;2023-06-05T03:34:50;7.30;99.90
9776;DHT22;4927;52.472;13.108;2023-06-05T03:35:52;7.40;99.90
9776;DHT22;4927;52.472;13.108;2023-06-05T03:36:54;7.40;99.90
9776;DHT22;4927;52.472;13.108;2023-06-05T03:37:56;7.40;99.90
9776;DHT22;4927;52.472;13.108;2023-06-05T03:38:57;7.40;99.90
9776;DHT22;4927;52.472;13.108;2023-06-05T03:39:59;7.40;99.90
9776;DHT22;4927;52.472;13.108;2023-06-05T03:41:01;7.40;99.90
9776;DHT22;4927;52.472;13.108;2023-06-05T03:42:04;7.40;99.90
9776;DHT22;4927;52.472;13.108;2023-06-05T03:43:06;7.40;99.90
9776;DHT22;4927;52.472;13.108;2023-06-05T03:44:07;7.40;99.90
9776;DHT22;4927;52.472;13.108;2023-06-05T03:45:10;7.40;99.90
9776;DHT22;4927;52.472;13.108;2023-06-05T03:46:12;7.40;99.90
9776;DHT22;4927;52.472;13.108;2023-06-05T03:47:13;7.40;99.90
9776;DHT22;4927;52.472;13.108;2023-06-05T03:48:15;7.40;99.90
9776;DHT22;4927;52.472;13.108;2023-06-05T03:49:17;7.40;99.90
9776;DHT22;4927;52.472;13.108;2023-06-05T03:50:19;7.40;99.90
9776;DHT22;4927;52.472;13.108;2023-06-05T03:51:21;7.40;99.90
9776;DHT22;4927;52.472;13.108;2023-06-05T03:52:22;7.50;99.90
9776;DHT22;4927;52.472;13.108;2023-06-05T03:53:24;7.50;99.90
9776;DHT22;4927;52.472;13.108;2023-06-05T03:54:27;7.50;99.90
9776;DHT22;4927;52.472;13.108;2023-06-05T03:55:31;7.50;99.90
9776;DHT22;4927;52.472;13.108;2023-06-05T03:56:33;7.50;99.90
9776;DHT22;4927;52.472;13.108;2023-06-05T03:57:35;7.50;99.90
9776;DHT22;4927;52.472;13.108;2023-06-05T03:58:38;7.50;99.90
9776;DHT22;4927;52.472;13.108;2023-06-05T03:59:39;7.60;99.90
9776;DHT22;4927;52.472;13.108;2023-06-05T04:00:42;7.60;99.90
9776;DHT22;4927;52.472;13.108;2023-06-05T04:01:43;7.60;99.90
9776;DHT22;4927;52.472;13.108;2023-06-05T04:02:45;7.60;99.90
9776;DHT22;4927;52.472;13.108;2023-06-05T04:03:47;7.70;99.90
9776;DHT22;4927;52.472;13.108;2023-06-05T04:04:49;7.70;99.90
9776;DHT22;4927;52.472;13.108;2023-06-05T04:05:50;7.70;99.90
9776;DHT22;4927;52.472;13.108;2023-06-05T04:06:54;7.80;99.90
9776;DHT22;4927;52.472;13.108;2023-06-05T04:07:56;7.80;99.90
9776;DHT22;4927;52.472;13.108;2023-06-05T04:08:58;7.80;99.90
9776;DHT22;4927;52.472;13.108;2023-06-05T04:09:59;7.80;99.90
9776;DHT22;4927;52.472;13.108;2023-06-05T04:11:01;7.90;99.90
9776;DHT22;4927;52.472;13.108;2023-06-05T04:12:04;7.90;99.90
9776;DHT22;4927;52.472;13.108;2023-06-05T04:13:06;7.90;99.90
9776;DHT22;4927;52.472;13.108;2023-06-05T04:14:08;8.00;99.90
9776;DHT22;4927;52.472;13.108;2023-06-05T04:15:10;8.00;99.90
9776;DHT22;4927;52.472;13.108;2023-06-05T04:16:12;8.00;99.90
9776;DHT22;4927;52.472;13.108;2023-06-05T04:17:13;8.10;99.90
9776;DHT22;4927;52.472;13.108;2023-06-05T04:18:15;8.10;99.90
9776;DHT22;4927;52.472;13.108;2023-06-05T04:19:17;8.10;99.90
9776;DHT22;4927;52.472;13.108;2023-06-05T04:20:19;8.20;99.90
9776;DHT22;4927;52.472;13.108;2023-06-05T04:21:21;8.20;99.90
9776;DHT22;4927;52.472;13.108;2023-06-05T04:22:23;8.20;99.90
9776;DHT22;4927;52.472;13.108;2023-06-05T04:23:24;8.30;99.90
9776;DHT22;4927;52.472;13.108;2023-06-05T04:24:26;8.30;99.90
9776;DHT22;4927;52.472;13.108;2023-06-05T04:25:28;8.30;99.90
9776;DHT22;4927;52.472;13.108;2023-06-05T04:26:30;8.30;99.90
9776;DHT22;4927;52.472;13.108;2023-06-05T04:27:32;8.40;99.90
9776;DHT22;4927;52.472;13.108;2023-06-05T04:28:33;8.40;99.90
9776;DHT22;4927;52.472;13.108;2023-06-05T04:29:35;8.50;99.90
9776;DHT22;4927;52.472;13.108;2023-06-05T04:30:37;8.50;99.90
9776;DHT22;4927;52.472;13.108;2023-06-05T04:31:40;8.60;99.90
9776;DHT22;4927;52.472;13.108;2023-06-05T04:32:41;8.60;99.90
9776;DHT22;4927;52.472;13.108;2023-06-05T04:33:43;8.70;99.90
9776;DHT22;4927;52.472;13.108;2023-06-05T04:34:45;8.70;99.90
9776;DHT22;4927;52.472;13.108;2023-06-05T04:35:47;8.80;99.90
9776;DHT22;4927;52.472;13.108;2023-06-05T04:36:49;8.80;99.90
9776;DHT22;4927;52.472;13.108;2023-06-05T04:37:51;8.90;99.90
9776;DHT22;4927;52.472;13.108;2023-06-05T04:38:53;8.90;99.90
9776;DHT22;4927;52.472;13.108;2023-06-05T04:39:54;8.90;99.90
9776;DHT22;4927;52.472;13.108;2023-06-05T04:40:56;9.00;99.90
9776;DHT22;4927;52.472;13.108;2023-06-05T04:41:58;9.10;99.90
9776;DHT22;4927;52.472;13.108;2023-06-05T04:43:00;9.10;99.90
9776;DHT22;4927;52.472;13.108;2023-06-05T04:44:01;9.20;99.90
9776;DHT22;4927;52.472;13.108;2023-06-05T04:45:05;9.20;99.90
9776;DHT22;4927;52.472;13.108;2023-06-05T04:46:07;9.30;99.90
9776;DHT22;4927;52.472;13.108;2023-06-05T04:47:09;9.30;99.90
9776;DHT22;4927;52.472;13.108;2023-06-05T04:48:11;9.30;99.90
9776;DHT22;4927;52.472;13.108;2023-06-05T04:49:13;9.40;99.90
9776;DHT22;4927;52.472;13.108;2023-06-05T04:50:21;9.40;99.90
9776;DHT22;4927;52.472;13.108;2023-06-05T04:51:22;9.50;99.90
9776;DHT22;4927;52.472;13.108;2023-06-05T04:52:24;9.50;99.90
9776;DHT22;4927;52.472;13.108;2023-06-05T04:53:25;9.50;99.90
9776;DHT22;4927;52.472;13.108;2023-06-05T04:54:27;9.60;99.90
9776;DHT22;4927;52.472;13.108;2023-06-05T04:55:29;9.60;99.90
9776;DHT22;4927;52.472;13.108;2023-06-05T04:56:31;9.60;99.90
9776;DHT22;4927;52.472;13.108;2023-06-05T04:57:33;9.70;99.90
9776;DHT22;4927;52.472;13.108;2023-06-05T04:58:35;9.70;99.90
9776;DHT22;4927;52.472;13.108;2023-06-05T04:59:37;9.80;99.90
9776;DHT22;4927;52.472;13.108;2023-06-05T05:00:39;9.80;99.90
9776;DHT22;4927;52.472;13.108;2023-06-05T05:01:41;9.80;99.90
9776;DHT22;4927;52.472;13.108;2023-06-05T05:02:42;9.90;99.90
9776;DHT22;4927;52.472;13.108;2023-06-05T05:03:44;9.90;99.90
9776;DHT22;4927;52.472;13.108;2023-06-05T05:04:46;10.00;99.90
9776;DHT22;4927;52.472;13.108;2023-06-05T05:05:48;10.00;99.90
9776;DHT22;4927;52.472;13.108;2023-06-05T05:06:50;10.10;99.90
9776;DHT22;4927;52.472;13.108;2023-06-05T05:07:51;10.10;99.90
9776;DHT22;4927;52.472;13.108;2023-06-05T05:08:53;10.20;99.90
9776;DHT22;4927;52.472;13.108;2023-06-05T05:09:55;10.20;99.90
9776;DHT22;4927;52.472;13.108;2023-06-05T05:10:57;10.20;99.90
9776;DHT22;4927;52.472;13.108;2023-06-05T05:12:00;10.40;99.90
9776;DHT22;4927;52.472;13.108;2023-06-05T05:13:01;10.40;99.90
9776;DHT22;4927;52.472;13.108;2023-06-05T05:14:03;10.40;99.90
9776;DHT22;4927;52.472;13.108;2023-06-05T05:15:05;10.50;99.90
9776;DHT22;4927;52.472;13.108;2023-06-05T05:16:08;10.50;99.90
9776;DHT22;4927;52.472;13.108;2023-06-05T05:17:10;10.60;99.90
9776;DHT22;4927;52.472;13.108;2023-06-05T05:18:11;10.60;99.90
9776;DHT22;4927;52.472;13.108;2023-06-05T05:19:14;10.80;99.90
9776;DHT22;4927;52.472;13.108;2023-06-05T05:20:16;10.80;99.90
9776;DHT22;4927;52.472;13.108;2023-06-05T05:21:18;11.00;99.90
9776;DHT22;4927;52.472;13.108;2023-06-05T05:22:20;11.00;99.90
9776;DHT22;4927;52.472;13.108;2023-06-05T05:23:22;11.10;99.90
9776;DHT22;4927;52.472;13.108;2023-06-05T05:24:24;11.10;99.90
9776;DHT22;4927;52.472;13.108;2023-06-05T05:25:26;11.20;99.90
9776;DHT22;4927;52.472;13.108;2023-06-05T05:26:27;11.30;99.90
9776;DHT22;4927;52.472;13.108;2023-06-05T05:27:29;11.40;99.90
9776;DHT22;4927;52.472;13.108;2023-06-05T05:28:31;11.50;99.90
9776;DHT22;4927;52.472;13.108;2023-06-05T05:29:33;11.60;99.90
9776;DHT22;4927;52.472;13.108;2023-06-05T05:30:34;11.60;99.90
9776;DHT22;4927;52.472;13.108;2023-06-05T05:31:36;11.80;99.90
9776;DHT22;4927;52.472;13.108;2023-06-05T05:32:38;11.90;99.90
9776;DHT22;4927;52.472;13.108;2023-06-05T05:33:40;12.00;99.90
9776;DHT22;4927;52.472;13.108;2023-06-05T05:34:41;12.10;99.90
9776;DHT22;4927;52.472;13.108;2023-06-05T05:35:44;12.20;99.90
9776;DHT22;4927;52.472;13.108;2023-06-05T05:36:47;12.50;99.90
9776;DHT22;4927;52.472;13.108;2023-06-05T05:37:48;12.40;99.90
9776;DHT22;4927;52.472;13.108;2023-06-05T05:38:50;12.50;99.90
9776;DHT22;4927;52.472;13.108;2023-06-05T05:39:52;12.60;99.90
9776;DHT22;4927;52.472;13.108;2023-06-05T05:40:54;12.70;99.90
9776;DHT22;4927;52.472;13.108;2023-06-05T05:41:55;12.80;99.90
9776;DHT22;4927;52.472;13.108;2023-06-05T05:43:04;12.90;99.90
9776;DHT22;4927;52.472;13.108;2023-06-05T05:44:06;13.00;99.90
9776;DHT22;4927;52.472;13.108;2023-06-05T05:45:09;13.00;99.90
9776;DHT22;4927;52.472;13.108;2023-06-05T05:46:11;13.20;99.90
9776;DHT22;4927;52.472;13.108;2023-06-05T05:47:13;13.20;99.90
9776;DHT22;4927;52.472;13.108;2023-06-05T05:48:15;13.30;99.90
9776;DHT22;4927;52.472;13.108;2023-06-05T05:49:16;13.30;99.90
9776;DHT22;4927;52.472;13.108;2023-06-05T05:50:18;13.40;99.90
9776;DHT22;4927;52.472;13.108;2023-06-05T05:51:20;13.40;99.90
9776;DHT22;4927;52.472;13.108;2023-06-05T05:52:22;13.50;99.90
9776;DHT22;4927;52.472;13.108;2023-06-05T05:53:24;13.60;99.90
9776;DHT22;4927;52.472;13.108;2023-06-05T05:54:26;13.70;99.90
9776;DHT22;4927;52.472;13.108;2023-06-05T05:55:27;13.70;99.90
9776;DHT22;4927;52.472;13.108;2023-06-05T05:56:29;13.70;99.90
9776;DHT22;4927;52.472;13.108;2023-06-05T05:57:31;13.80;99.90
9776;DHT22;4927;52.472;13.108;2023-06-05T05:58:33;13.80;99.90
9776;DHT22;4927;52.472;13.108;2023-06-05T05:59:34;13.90;99.90
9776;DHT22;4927;52.472;13.108;2023-06-05T06:00:37;14.00;99.90
9776;DHT22;4927;52.472;13.108;2023-06-05T06:01:38;14.00;99.90
9776;DHT22;4927;52.472;13.108;2023-06-05T06:02:40;14.00;99.90
9776;DHT22;4927;52.472;13.108;2023-06-05T06:03:42;14.10;99.90
9776;DHT22;4927;52.472;13.108;2023-06-05T06:04:45;14.20;99.90
9776;DHT22;4927;52.472;13.108;2023-06-05T06:05:46;14.20;99.90
9776;DHT22;4927;52.472;13.108;2023-06-05T06:06:48;14.20;99.90
9776;DHT22;4927;52.472;13.108;2023-06-05T06:07:50;14.30;99.90
9776;DHT22;4927;52.472;13.108;2023-06-05T06:08:52;14.30;99.90
9776;DHT22;4927;52.472;13.108;2023-06-05T06:09:54;14.40;99.90
9776;DHT22;4927;52.472;13.108;2023-06-05T06:10:56;14.40;99.90
9776;DHT22;4927;52.472;13.108;2023-06-05T06:11:59;14.60;99.90
9776;DHT22;4927;52.472;13.108;2023-06-05T06:13:01;14.60;99.90
9776;DHT22;4927;52.472;13.108;2023-06-05T06:14:03;14.60;99.90
9776;DHT22;4927;52.472;13.108;2023-06-05T06:15:06;14.60;99.90
9776;DHT22;4927;52.472;13.108;2023-06-05T06:16:09;14.80;99.90
9776;DHT22;4927;52.472;13.108;2023-06-05T06:17:11;14.80;99.90
9776;DHT22;4927;52.472;13.108;2023-06-05T06:18:13;14.80;99.90
9776;DHT22;4927;52.472;13.108;2023-06-05T06:19:14;14.80;99.90
9776;DHT22;4927;52.472;13.108;2023-06-05T06:20:16;14.90;99.90
9776;DHT22;4927;52.472;13.108;2023-06-05T06:21:18;14.90;99.90
9776;DHT22;4927;52.472;13.108;2023-06-05T06:22:20;15.00;99.90
9776;DHT22;4927;52.472;13.108;2023-06-05T06:23:22;15.00;99.90
9776;DHT22;4927;52.472;13.108;2023-06-05T06:24:23;15.10;99.90
9776;DHT22;4927;52.472;13.108;2023-06-05T06:25:25;15.20;99.90
9776;DHT22;4927;52.472;13.108;2023-06-05T06:26:29;15.30;99.90
9776;DHT22;4927;52.472;13.108;2023-06-05T06:27:37;15.30;99.90
9776;DHT22;4927;52.472;13.108;2023-06-05T06:28:39;15.40;99.90
9776;DHT22;4927;52.472;13.108;2023-06-05T06:30:55;15.50;99.90
9776;DHT22;4927;52.472;13.108;2023-06-05T06:31:57;15.50;99.90
9776;DHT22;4927;52.472;13.108;2023-06-05T06:32:59;15.60;99.90
9776;DHT22;4927;52.472;13.108;2023-06-05T06:34:01;15.60;99.90
9776;DHT22;4927;52.472;13.108;2023-06-05T06:35:04;15.70;99.90
9776;DHT22;4927;52.472;13.108;2023-06-05T06:36:07;15.70;99.90
9776;DHT22;4927;52.472;13.108;2023-06-05T06:37:09;15.80;99.90
9776;DHT22;4927;52.472;13.108;2023-06-05T06:38:10;15.80;99.90
9776;DHT22;4927;52.472;13.108;2023-06-05T06:39:12;15.90;99.90
9776;DHT22;4927;52.472;13.108;2023-06-05T06:40:14;15.90;99.90
9776;DHT22;4927;52.472;13.108;2023-06-05T06:41:16;16.10;99.90
9776;DHT22;4927;52.472;13.108;2023-06-05T06:42:18;16.00;99.90
9776;DHT22;4927;52.472;13.108;2023-06-05T06:43:20;16.10;99.90
9776;DHT22;4927;52.472;13.108;2023-06-05T06:44:22;16.20;99.90
9776;DHT22;4927;52.472;13.108;2023-06-05T06:45:24;16.20;99.90
9776;DHT22;4927;52.472;13.108;2023-06-05T06:46:26;16.30;99.90